This is the latest recevied weather packets stored in our database for station/object CW79215. If no packets are shown the sender has not sent any weather packets the latest 10 day(s).
| Time | Temp. | Humidity | Pressure | Rain* | Wind** | Luminosity | Snow |
|---|---|---|---|---|---|---|---|
| 1777881131 | 18.33° C | 46% | 1018.7 hPa | - | - | - | - |
| 1777880230 | 17.78° C | 48% | 1018.7 hPa | - | - | - | - |
| 1777879330 | 17.22° C | 52% | 1018.8 hPa | - | - | - | - |
| 1777878430 | 16.11° C | 54% | 1018.6 hPa | - | - | - | - |
| 1777877530 | 14.44° C | 57% | 1018.8 hPa | - | - | - | - |
| 1777876641 | 14.44° C | 58% | 1018.8 hPa | - | - | - | - |
| 1777875741 | 13.33° C | 62% | 1018.8 hPa | - | - | - | - |
| 1777874841 | 12.78° C | 62% | 1018.9 hPa | - | - | - | - |
| 1777873941 | 11.67° C | 65% | 1019 hPa | - | - | - | - |
| 1777873040 | 11.11° C | 65% | 1018.9 hPa | - | - | - | - |
| 1777872140 | 11.11° C | 66% | 1019 hPa | - | - | - | - |
| 1777871240 | 10.56° C | 67% | 1019 hPa | - | - | - | - |
| 1777870340 | 10.56° C | 67% | 1019.2 hPa | - | - | - | - |
| 1777869440 | 9.44° C | 70% | 1019.3 hPa | - | - | - | - |
| 1777868540 | 9.44° C | 70% | 1019.3 hPa | - | - | - | - |
| 1777867640 | 9.44° C | 71% | 1019.4 hPa | - | - | - | - |
| 1777866740 | 9.44° C | 70% | 1019.4 hPa | - | - | - | - |
| 1777865840 | 10° C | 68% | 1019.5 hPa | - | - | - | - |
| 1777864940 | 10° C | 69% | 1019.4 hPa | - | - | - | - |
| 1777864040 | 10.56° C | 66% | 1019.5 hPa | - | - | - | - |
| 1777863139 | 10.56° C | 68% | 1019.5 hPa | - | - | - | - |
| 1777862239 | 10.56° C | 68% | 1019.5 hPa | - | - | - | - |
| 1777861339 | 10.56° C | 67% | 1019.4 hPa | - | - | - | - |
| 1777860439 | 11.11° C | 67% | 1019.3 hPa | - | - | - | - |
| 1777859538 | 11.11° C | 67% | 1019.4 hPa | - | - | - | - |
* Rain since midnight (hover to see other rain measurements)
** Current wind speed in m/s (hover to see current wind gust speed)